createdAt,value
2022-09-10T00:01:36.982Z,99.98
2022-09-10T00:04:11.540Z,100.00
2022-09-10T00:06:40.406Z,100.00
2022-09-10T00:09:09.965Z,100.00
2022-09-10T00:11:39.667Z,100.00
2022-09-10T00:14:10.489Z,100.00
2022-09-10T00:16:38.466Z,100.00
2022-09-10T00:19:06.761Z,100.00
2022-09-10T00:21:35.740Z,100.00
2022-09-10T00:24:05.368Z,100.00
2022-09-10T00:26:38.399Z,99.99
2022-09-10T00:29:10.548Z,99.99
2022-09-10T00:31:38.907Z,100.00
2022-09-10T00:34:07.168Z,100.00
2022-09-10T00:36:39.935Z,100.00
2022-09-10T00:39:14.559Z,100.00
2022-09-10T00:41:45.461Z,100.00
2022-09-10T00:44:41.765Z,100.00
2022-09-10T00:47:14.421Z,100.00
2022-09-10T00:49:48.899Z,100.00
2022-09-10T00:52:17.687Z,100.00
2022-09-10T00:54:47.635Z,100.00
2022-09-10T00:57:20.560Z,100.00
2022-09-10T00:59:53.804Z,100.00
2022-09-10T01:02:21.957Z,100.00
2022-09-10T01:04:51.323Z,100.00
2022-09-10T01:07:21.483Z,100.00
2022-09-10T01:09:49.823Z,100.00
2022-09-10T01:12:19.888Z,100.00
2022-09-10T01:15:15.838Z,100.00
2022-09-10T01:17:58.087Z,100.00
2022-09-10T01:20:27.145Z,100.00
2022-09-10T01:23:27.419Z,100.00
2022-09-10T01:26:14.020Z,100.00
2022-09-10T01:28:49.734Z,100.00
2022-09-10T01:31:28.239Z,100.00
2022-09-10T01:34:03.010Z,100.00
2022-09-10T01:36:38.839Z,100.00
2022-09-10T01:39:07.067Z,100.00
2022-09-10T01:41:34.980Z,100.00
2022-09-10T01:44:45.278Z,100.00
2022-09-10T01:47:27.949Z,100.00
2022-09-10T01:50:32.241Z,100.00
2022-09-10T01:53:39.363Z,100.00
2022-09-10T01:56:35.828Z,100.00
2022-09-10T01:59:29.777Z,100.00
2022-09-10T02:02:40.922Z,100.00
2022-09-10T02:05:12.128Z,100.00
2022-09-10T02:07:40.211Z,100.00
2022-09-10T02:10:09.962Z,100.00
2022-09-10T02:12:45.705Z,100.00
2022-09-10T02:15:42.797Z,100.00
2022-09-10T02:18:20.079Z,100.00
2022-09-10T02:20:52.099Z,100.00
2022-09-10T02:23:24.956Z,100.00
2022-09-10T02:25:54.166Z,100.00
2022-09-10T02:28:27.648Z,100.00
2022-09-10T02:30:55.583Z,100.00
2022-09-10T02:33:23.802Z,100.00
2022-09-10T02:35:53.616Z,100.00
2022-09-10T02:38:21.758Z,100.00
2022-09-10T02:40:49.801Z,100.00
2022-09-10T02:43:17.894Z,100.00
2022-09-10T02:45:45.890Z,100.00
2022-09-10T02:48:14.285Z,100.00
2022-09-10T02:50:45.622Z,100.00
2022-09-10T02:53:14.126Z,100.00
2022-09-10T02:55:46.412Z,100.00
2022-09-10T02:58:16.756Z,100.00
2022-09-10T03:00:45.771Z,100.00
2022-09-10T03:03:13.957Z,100.00
2022-09-10T03:05:41.974Z,100.00
2022-09-10T03:08:10.397Z,100.00
2022-09-10T03:10:38.557Z,100.00
2022-09-10T03:13:07.269Z,100.00
2022-09-10T03:15:35.233Z,100.00
2022-09-10T03:18:03.099Z,100.00
2022-09-10T03:20:31.433Z,100.00
2022-09-10T03:22:59.445Z,100.00
2022-09-10T03:25:27.472Z,100.00
2022-09-10T03:27:59.898Z,100.00
2022-09-10T03:30:28.274Z,100.00
2022-09-10T03:32:57.884Z,100.00
2022-09-10T03:35:25.859Z,100.00
2022-09-10T03:37:54.533Z,100.00
2022-09-10T03:40:23.323Z,100.00
2022-09-10T03:42:51.227Z,100.00
2022-09-10T03:45:19.161Z,100.00
2022-09-10T03:47:48.176Z,100.00
2022-09-10T03:50:17.212Z,100.00
2022-09-10T03:52:46.335Z,100.00
2022-09-10T03:55:14.809Z,100.00
2022-09-10T03:57:43.752Z,100.00
2022-09-10T04:00:12.460Z,100.00
2022-09-10T04:02:44.271Z,100.00
2022-09-10T04:05:14.245Z,100.00
2022-09-10T04:07:42.424Z,100.00
2022-09-10T04:10:11.101Z,100.00
2022-09-10T04:12:41.046Z,100.00
2022-09-10T04:15:09.486Z,100.00
2022-09-10T04:17:37.897Z,100.00
2022-09-10T04:20:06.570Z,100.00
2022-09-10T04:22:34.820Z,100.00
2022-09-10T04:25:03.343Z,100.00
2022-09-10T04:27:31.579Z,100.00
2022-09-10T04:29:59.518Z,100.00
2022-09-10T04:32:28.146Z,100.00
2022-09-10T04:34:56.428Z,100.00
2022-09-10T04:37:24.664Z,100.00
2022-09-10T04:39:54.889Z,100.00
2022-09-10T04:42:23.457Z,100.00
2022-09-10T04:44:52.253Z,100.00
2022-09-10T04:47:21.346Z,100.00
2022-09-10T04:49:49.761Z,100.00
2022-09-10T04:52:20.387Z,100.00
2022-09-10T04:54:49.160Z,100.00
2022-09-10T04:57:17.147Z,100.00
2022-09-10T04:59:45.111Z,100.00
2022-09-10T05:02:14.797Z,100.00
2022-09-10T05:04:42.812Z,100.00
2022-09-10T05:07:10.869Z,100.00
2022-09-10T05:09:38.905Z,100.00
2022-09-10T05:12:07.087Z,100.00
2022-09-10T05:14:35.056Z,100.00
2022-09-10T05:17:03.424Z,100.00
2022-09-10T05:19:31.912Z,100.00
2022-09-10T05:22:05.125Z,100.00
2022-09-10T05:24:34.501Z,100.00
2022-09-10T05:27:04.711Z,100.00
2022-09-10T05:29:32.756Z,100.00
2022-09-10T05:32:01.236Z,100.00
2022-09-10T05:34:29.281Z,100.00
2022-09-10T05:36:58.413Z,100.00
2022-09-10T05:39:26.486Z,100.00
2022-09-10T05:41:55.600Z,100.00
2022-09-10T05:44:24.151Z,100.00
2022-09-10T05:46:52.704Z,100.00
2022-09-10T05:49:21.543Z,100.00
2022-09-10T05:51:49.407Z,100.00
2022-09-10T05:54:17.292Z,100.00
2022-09-10T05:56:46.415Z,100.00
2022-09-10T05:59:14.696Z,100.00
2022-09-10T06:01:47.414Z,100.00
2022-09-10T06:04:19.244Z,100.00
2022-09-10T06:06:47.998Z,100.00
2022-09-10T06:09:17.300Z,100.00
2022-09-10T06:11:54.416Z,100.00
2022-09-10T06:14:24.563Z,100.00
2022-09-10T06:16:54.863Z,100.00
2022-09-10T06:19:23.296Z,100.00
2022-09-10T06:21:52.478Z,100.00
2022-09-10T06:24:20.943Z,100.00
2022-09-10T06:26:50.157Z,100.00
2022-09-10T06:29:19.377Z,100.00
2022-09-10T06:31:48.752Z,99.74
2022-09-10T06:34:19.142Z,99.29
2022-09-10T06:36:49.297Z,99.23
2022-09-10T06:39:18.085Z,99.47
2022-09-10T06:41:51.607Z,99.85
2022-09-10T06:44:39.545Z,100.00
2022-09-10T06:48:32.303Z,100.00
2022-09-10T06:50:12.907Z,100.00
2022-09-10T06:52:42.456Z,100.00
2022-09-10T06:55:12.856Z,100.00
2022-09-10T06:57:44.478Z,100.00
2022-09-10T07:00:15.148Z,100.00
2022-09-10T07:02:46.179Z,100.00
2022-09-10T07:05:14.293Z,100.00
2022-09-10T07:07:43.436Z,100.00
2022-09-10T07:10:12.220Z,100.00
2022-09-10T07:12:40.549Z,100.00
2022-09-10T07:15:09.661Z,100.00
2022-09-10T07:17:38.065Z,100.00
2022-09-10T07:20:08.393Z,99.77
2022-09-10T07:22:43.899Z,99.04
2022-09-10T07:25:15.037Z,98.66
2022-09-10T07:27:54.670Z,98.99
2022-09-10T07:30:22.723Z,98.75
2022-09-10T07:32:52.233Z,99.45
2022-09-10T07:35:25.272Z,99.99
2022-09-10T07:37:54.930Z,100.00
2022-09-10T07:40:23.550Z,99.64
2022-09-10T07:42:52.605Z,99.16
2022-09-10T07:45:21.457Z,97.00
2022-09-10T07:47:50.049Z,95.95
2022-09-10T07:50:19.293Z,95.12
2022-09-10T07:52:50.818Z,94.45
2022-09-10T07:55:19.236Z,94.22
2022-09-10T07:57:47.817Z,93.65
2022-09-10T08:00:17.044Z,92.94
2022-09-10T08:02:49.748Z,92.55
2022-09-10T08:05:19.940Z,92.13
2022-09-10T08:07:47.912Z,91.42
2022-09-10T08:10:16.705Z,90.20
2022-09-10T08:12:45.051Z,89.16
2022-09-10T08:15:14.153Z,89.69
2022-09-10T08:17:42.273Z,88.78
2022-09-10T08:20:10.671Z,88.90
2022-09-10T08:22:40.212Z,89.45
2022-09-10T08:25:08.966Z,88.73
2022-09-10T08:27:37.908Z,87.50
2022-09-10T08:30:08.059Z,86.27
2022-09-10T08:32:36.141Z,85.60
2022-09-10T08:35:05.099Z,84.44
2022-09-10T08:37:34.399Z,83.55
2022-09-10T08:40:05.514Z,81.80
2022-09-10T08:42:45.167Z,80.67
2022-09-10T08:45:23.552Z,79.45
2022-09-10T08:47:58.834Z,77.52
2022-09-10T08:50:52.763Z,75.69
2022-09-10T08:53:27.066Z,75.65
2022-09-10T08:56:02.644Z,74.72
2022-09-10T08:58:56.735Z,72.31
2022-09-10T09:01:52.040Z,70.72
2022-09-10T09:04:45.801Z,69.91
2022-09-10T09:07:17.073Z,69.89
2022-09-10T09:09:53.539Z,70.03
2022-09-10T09:13:25.302Z,69.26
2022-09-10T09:16:43.375Z,68.96
2022-09-10T09:19:41.298Z,69.33
2022-09-10T09:22:20.000Z,69.54
2022-09-10T09:25:03.376Z,68.29
2022-09-10T09:27:36.580Z,68.09
2022-09-10T09:30:04.700Z,68.60
2022-09-10T09:32:41.046Z,69.27
2022-09-10T09:35:28.699Z,69.94
2022-09-10T09:38:13.858Z,70.18
2022-09-10T09:40:49.780Z,70.03
2022-09-10T09:43:41.113Z,69.68
2022-09-10T09:46:16.430Z,69.19
2022-09-10T09:48:48.133Z,70.41
2022-09-10T09:51:21.583Z,70.78
2022-09-10T09:54:12.133Z,71.30
2022-09-10T09:56:45.951Z,71.55
2022-09-10T09:59:29.250Z,70.57
2022-09-10T10:02:11.228Z,69.62
2022-09-10T10:04:54.056Z,69.07
2022-09-10T10:07:33.432Z,68.25
2022-09-10T10:10:04.900Z,68.22
2022-09-10T10:12:33.842Z,67.88
2022-09-10T10:15:03.018Z,67.50
2022-09-10T10:17:36.212Z,67.56
2022-09-10T10:20:07.858Z,68.70
2022-09-10T10:22:38.330Z,69.86
2022-09-10T10:25:38.521Z,70.68
2022-09-10T10:28:26.382Z,71.04
2022-09-10T10:30:59.574Z,71.65
2022-09-10T10:33:31.500Z,72.44
2022-09-10T10:36:25.261Z,72.96
2022-09-10T10:39:03.944Z,73.01
2022-09-10T10:41:31.861Z,73.25
2022-09-10T10:44:28.812Z,73.56
2022-09-10T10:47:43.341Z,74.01
2022-09-10T10:50:25.591Z,74.35
2022-09-10T10:53:12.181Z,75.12
2022-09-10T10:55:45.726Z,76.29
2022-09-10T10:58:25.048Z,76.93
2022-09-10T11:01:05.145Z,77.44
2022-09-10T11:04:02.192Z,77.25
2022-09-10T11:06:41.368Z,76.93
2022-09-10T11:09:31.266Z,76.55
2022-09-10T11:12:04.259Z,76.16
2022-09-10T11:14:39.118Z,75.46
2022-09-10T11:17:19.705Z,74.77
2022-09-10T11:20:34.553Z,74.70
2022-09-10T11:23:12.200Z,74.09
2022-09-10T11:25:48.170Z,74.45
2022-09-10T11:28:26.569Z,74.65
2022-09-10T11:31:02.725Z,75.21
2022-09-10T11:33:57.016Z,74.22
2022-09-10T11:36:38.691Z,74.13
2022-09-10T11:39:33.435Z,73.48
2022-09-10T11:42:13.626Z,73.47
2022-09-10T11:45:18.706Z,73.90
2022-09-10T11:47:57.228Z,73.53
2022-09-10T11:50:34.570Z,72.81
2022-09-10T11:53:07.735Z,71.96
2022-09-10T11:56:17.460Z,71.59
2022-09-10T11:58:52.810Z,71.52
2022-09-10T12:01:50.921Z,71.99
2022-09-10T12:04:52.675Z,72.79
2022-09-10T12:07:39.109Z,72.94
2022-09-10T12:10:19.026Z,73.27
2022-09-10T12:12:52.023Z,73.22
2022-09-10T12:15:26.494Z,72.92
2022-09-10T12:18:00.387Z,72.11
2022-09-10T12:20:42.395Z,72.56
2022-09-10T12:23:23.492Z,72.82
2022-09-10T12:26:00.242Z,72.98
2022-09-10T12:28:43.548Z,73.16
2022-09-10T12:31:24.294Z,73.21
2022-09-10T12:34:08.290Z,73.51
2022-09-10T12:37:02.867Z,74.64
2022-09-10T12:39:31.992Z,76.09
2022-09-10T12:42:02.812Z,76.94
2022-09-10T12:44:36.936Z,77.81
2022-09-10T12:47:16.858Z,79.05
2022-09-10T12:49:46.927Z,79.99
2022-09-10T12:52:45.011Z,81.11
2022-09-10T12:55:36.256Z,82.29
2022-09-10T12:58:37.995Z,83.00
2022-09-10T13:01:46.530Z,83.94
2022-09-10T13:04:36.148Z,84.59
2022-09-10T13:07:22.558Z,85.03
2022-09-10T13:10:18.434Z,85.68
2022-09-10T13:12:55.283Z,86.27
2022-09-10T13:15:26.507Z,86.18
2022-09-10T13:17:54.575Z,86.32
2022-09-10T13:20:22.671Z,86.74
2022-09-10T13:23:04.362Z,86.95
2022-09-10T13:25:40.249Z,87.03
2022-09-10T13:28:37.131Z,87.31
2022-09-10T13:31:14.327Z,87.65
2022-09-10T13:33:52.167Z,87.90
2022-09-10T13:36:42.014Z,88.28
2022-09-10T13:39:28.258Z,88.78
2022-09-10T13:42:24.985Z,88.90
2022-09-10T13:44:56.080Z,89.00
2022-09-10T13:47:49.743Z,89.27
2022-09-10T13:50:25.842Z,89.46
2022-09-10T13:52:58.775Z,89.67
2022-09-10T13:55:30.284Z,90.03
2022-09-10T13:58:06.160Z,89.99
2022-09-10T14:00:41.622Z,90.29
2022-09-10T14:03:22.581Z,90.37
2022-09-10T14:05:54.489Z,90.40
2022-09-10T14:08:39.366Z,90.22
2022-09-10T14:11:12.896Z,90.72
2022-09-10T14:13:54.236Z,91.01
2022-09-10T14:16:37.870Z,90.89
2022-09-10T14:19:15.085Z,91.43
2022-09-10T14:21:43.707Z,90.55
2022-09-10T14:24:45.432Z,90.10
2022-09-10T14:27:26.798Z,90.64
2022-09-10T14:29:57.234Z,91.00
2022-09-10T14:32:32.164Z,90.94
2022-09-10T14:35:39.561Z,90.47
2022-09-10T14:38:30.366Z,90.22
2022-09-10T14:41:04.337Z,90.06
2022-09-10T14:43:35.764Z,90.36
2022-09-10T14:46:08.021Z,90.61
2022-09-10T14:49:02.208Z,90.36
2022-09-10T14:51:30.794Z,89.76
2022-09-10T14:53:59.373Z,90.19
2022-09-10T14:56:34.171Z,90.59
2022-09-10T14:59:06.059Z,90.97
2022-09-10T15:01:35.485Z,91.18
2022-09-10T15:04:04.488Z,91.55
2022-09-10T15:06:32.406Z,91.48
2022-09-10T15:09:01.804Z,91.01
2022-09-10T15:11:29.799Z,90.59
2022-09-10T15:13:59.479Z,90.27
2022-09-10T15:16:27.729Z,89.79
2022-09-10T15:18:55.978Z,89.33
2022-09-10T15:21:24.066Z,89.45
2022-09-10T15:23:52.031Z,89.73
2022-09-10T15:26:20.136Z,89.67
2022-09-10T15:28:48.080Z,89.80
2022-09-10T15:31:18.347Z,90.28
2022-09-10T15:33:46.349Z,90.56
2022-09-10T15:36:14.541Z,90.52
2022-09-10T15:38:42.779Z,90.36
2022-09-10T15:41:13.280Z,90.60
2022-09-10T15:43:43.104Z,90.83
2022-09-10T15:46:12.772Z,90.69
2022-09-10T15:48:41.034Z,90.73
2022-09-10T15:51:15.094Z,90.46
2022-09-10T15:53:44.066Z,90.71
2022-09-10T15:56:12.056Z,90.71
2022-09-10T15:58:41.231Z,90.69
2022-09-10T16:01:12.232Z,90.67
2022-09-10T16:03:47.204Z,91.35
2022-09-10T16:06:15.935Z,92.43
2022-09-10T16:08:49.581Z,92.06
2022-09-10T16:11:18.351Z,92.09
2022-09-10T16:13:47.088Z,92.07
2022-09-10T16:16:20.017Z,91.46
2022-09-10T16:18:51.722Z,91.32
2022-09-10T16:21:23.317Z,91.54
2022-09-10T16:23:53.180Z,91.86
2022-09-10T16:26:24.058Z,91.34
2022-09-10T16:28:54.580Z,91.03
2022-09-10T16:31:25.241Z,90.83
2022-09-10T16:33:55.275Z,91.16
2022-09-10T16:36:26.201Z,91.31
2022-09-10T16:38:55.801Z,91.52
2022-09-10T16:41:25.711Z,91.80
2022-09-10T16:43:55.179Z,91.81
2022-09-10T16:46:23.468Z,91.85
2022-09-10T16:48:52.868Z,91.95
2022-09-10T16:51:25.736Z,91.95
2022-09-10T16:53:57.069Z,91.73
2022-09-10T16:56:26.163Z,91.71
2022-09-10T16:58:54.171Z,91.85
2022-09-10T17:01:22.222Z,91.87
2022-09-10T17:03:52.118Z,91.73
2022-09-10T17:06:25.306Z,91.59
2022-09-10T17:08:55.337Z,91.62
2022-09-10T17:11:26.221Z,91.88
2022-09-10T17:13:57.148Z,91.85
2022-09-10T17:16:26.608Z,91.66
2022-09-10T17:18:57.697Z,91.63
2022-09-10T17:21:28.386Z,91.72
2022-09-10T17:23:56.687Z,91.62
2022-09-10T17:26:27.212Z,91.65
2022-09-10T17:28:57.827Z,91.53
2022-09-10T17:31:27.514Z,91.50
2022-09-10T17:33:56.703Z,91.78
2022-09-10T17:36:26.067Z,91.97
2022-09-10T17:38:55.247Z,92.07
2022-09-10T17:41:24.267Z,92.25
2022-09-10T17:43:52.356Z,92.32
2022-09-10T17:46:22.805Z,92.49
2022-09-10T17:48:51.477Z,92.80
2022-09-10T17:51:24.309Z,92.90
2022-09-10T17:53:55.399Z,93.16
2022-09-10T17:56:25.696Z,93.11
2022-09-10T17:59:04.643Z,93.34
2022-09-10T18:01:40.186Z,93.59
2022-09-10T18:04:12.664Z,93.66
2022-09-10T18:06:40.978Z,93.47
2022-09-10T18:09:09.028Z,93.16
2022-09-10T18:11:39.896Z,92.79
2022-09-10T18:14:08.595Z,92.57
2022-09-10T18:16:37.868Z,92.63
2022-09-10T18:19:13.918Z,92.78
2022-09-10T18:21:43.868Z,93.57
2022-09-10T18:24:17.314Z,93.75
2022-09-10T18:26:48.117Z,93.82
2022-09-10T18:29:19.143Z,93.63
2022-09-10T18:31:51.197Z,93.30
2022-09-10T18:34:23.912Z,93.13
2022-09-10T18:36:54.969Z,93.18
2022-09-10T18:39:25.051Z,92.95
2022-09-10T18:41:54.915Z,92.58
2022-09-10T18:44:29.715Z,92.23
2022-09-10T18:46:57.696Z,91.59
2022-09-10T18:49:26.944Z,91.16
2022-09-10T18:51:56.534Z,91.03
2022-09-10T18:54:28.717Z,90.94
2022-09-10T18:56:57.428Z,90.91
2022-09-10T18:59:25.943Z,90.52
2022-09-10T19:01:56.100Z,89.82
2022-09-10T19:04:29.209Z,89.73
2022-09-10T19:06:57.692Z,89.57
2022-09-10T19:09:28.373Z,89.69
2022-09-10T19:11:58.709Z,89.62
2022-09-10T19:14:30.033Z,89.71
2022-09-10T19:17:00.452Z,89.88
2022-09-10T19:19:33.911Z,89.92
2022-09-10T19:22:07.155Z,90.09
2022-09-10T19:27:24.259Z,90.32
2022-09-10T19:29:53.434Z,90.59
2022-09-10T19:32:21.697Z,90.86
2022-09-10T19:34:51.245Z,90.92
2022-09-10T19:37:20.383Z,91.09
2022-09-10T19:39:48.573Z,91.50
2022-09-10T19:42:17.364Z,91.59
2022-09-10T19:44:45.343Z,91.88
2022-09-10T19:47:13.246Z,91.97
2022-09-10T19:49:41.317Z,92.18
2022-09-10T19:52:11.173Z,92.40
2022-09-10T19:54:39.189Z,92.51
2022-09-10T19:57:07.154Z,92.50
2022-09-10T19:59:35.749Z,92.44
2022-09-10T20:02:03.967Z,92.49
2022-09-10T20:04:33.234Z,92.60
2022-09-10T20:07:01.437Z,92.58
2022-09-10T20:09:29.376Z,92.50
2022-09-10T20:11:57.321Z,92.49
2022-09-10T20:14:25.474Z,92.42
2022-09-10T20:16:53.440Z,92.29
2022-09-10T20:19:22.168Z,92.34
2022-09-10T20:21:50.095Z,92.15
2022-09-10T20:24:18.114Z,91.88
2022-09-10T20:26:46.845Z,91.75
2022-09-10T20:29:19.549Z,91.61
2022-09-10T20:31:48.743Z,91.58
2022-09-10T20:34:22.031Z,91.49
2022-09-10T20:36:51.460Z,91.26
2022-09-10T20:39:21.894Z,91.18
2022-09-10T20:41:49.820Z,91.07
2022-09-10T20:44:17.991Z,91.14
2022-09-10T20:46:45.917Z,91.13
2022-09-10T20:49:16.441Z,91.25
2022-09-10T20:51:45.345Z,91.25
2022-09-10T20:54:15.985Z,91.25
2022-09-10T20:56:44.699Z,91.27
2022-09-10T20:59:14.771Z,91.28
2022-09-10T21:01:46.267Z,91.33
2022-09-10T21:04:14.969Z,91.32
2022-09-10T21:06:43.135Z,91.23
2022-09-10T21:09:12.174Z,91.23
2022-09-10T21:11:40.188Z,91.25
2022-09-10T21:14:09.030Z,91.44
2022-09-10T21:16:41.606Z,91.83
2022-09-10T21:19:12.719Z,92.13
2022-09-10T21:21:42.161Z,92.23
2022-09-10T21:24:16.364Z,92.08
2022-09-10T21:26:44.838Z,92.39
2022-09-10T21:29:15.628Z,92.35
2022-09-10T21:31:45.473Z,92.38
2022-09-10T21:34:14.604Z,92.43
2022-09-10T21:36:43.862Z,92.44
2022-09-10T21:39:17.518Z,92.32
2022-09-10T21:41:48.409Z,92.16
2022-09-10T21:44:22.175Z,91.99
2022-09-10T21:46:51.163Z,91.90
2022-09-10T21:49:20.444Z,91.89
2022-09-10T21:51:48.941Z,91.78
2022-09-10T21:54:20.775Z,91.85
2022-09-10T21:56:50.540Z,91.75
2022-09-10T21:59:21.649Z,91.67
2022-09-10T22:01:49.837Z,91.75
2022-09-10T22:04:22.577Z,91.73
2022-09-10T22:06:52.048Z,91.75
2022-09-10T22:09:21.412Z,91.74
2022-09-10T22:11:52.082Z,91.77
2022-09-10T22:14:25.458Z,91.74
2022-09-10T22:16:54.261Z,91.80
2022-09-10T22:19:25.979Z,91.92
2022-09-10T22:21:56.065Z,92.13
2022-09-10T22:24:26.195Z,92.23
2022-09-10T22:26:54.731Z,92.19
2022-09-10T22:29:22.964Z,92.25
2022-09-10T22:31:50.947Z,92.24
2022-09-10T22:34:19.670Z,92.33
2022-09-10T22:36:49.442Z,92.52
2022-09-10T22:39:19.941Z,92.53
2022-09-10T22:41:50.909Z,92.36
2022-09-10T22:44:20.194Z,92.27
2022-09-10T22:46:48.353Z,92.14
2022-09-10T22:49:17.143Z,92.12
2022-09-10T22:51:46.197Z,92.13
2022-09-10T22:54:14.859Z,92.18
2022-09-10T22:56:44.695Z,92.22
2022-09-10T22:59:14.266Z,91.91
2022-09-10T23:01:43.820Z,91.77
2022-09-10T23:04:11.793Z,91.63
2022-09-10T23:06:39.824Z,91.45
2022-09-10T23:09:12.287Z,91.24
2022-09-10T23:11:41.966Z,91.27
2022-09-10T23:14:17.827Z,91.38
2022-09-10T23:16:48.603Z,90.92
2022-09-10T23:19:20.421Z,90.54
2022-09-10T23:21:51.304Z,90.36
2022-09-10T23:24:22.181Z,90.09
2022-09-10T23:26:51.219Z,90.10
2022-09-10T23:29:20.093Z,90.14
2022-09-10T23:31:48.085Z,90.10
2022-09-10T23:34:20.143Z,90.01
2022-09-10T23:36:49.317Z,89.85
2022-09-10T23:39:22.610Z,89.71
2022-09-10T23:41:53.691Z,89.68
2022-09-10T23:44:21.823Z,89.64
2022-09-10T23:46:50.830Z,89.60
2022-09-10T23:49:18.805Z,89.66
2022-09-10T23:51:46.806Z,89.68
2022-09-10T23:54:15.358Z,89.52
2022-09-10T23:56:44.275Z,89.52
2022-09-10T23:59:12.255Z,89.65
